sensor_id;sensor_type;location;lat;lon;timestamp;P1;durP1;ratioP1;P2;durP2;ratioP2
73136;SDS011;62977;45.636;11.750;2022-12-16T00:01:52;28.27;;;15.70;;
73136;SDS011;62977;45.636;11.750;2022-12-16T00:04:18;26.33;;;15.10;;
73136;SDS011;62977;45.636;11.750;2022-12-16T00:06:44;26.33;;;14.82;;
73136;SDS011;62977;45.636;11.750;2022-12-16T00:09:09;25.75;;;15.00;;
73136;SDS011;62977;45.636;11.750;2022-12-16T00:11:35;25.77;;;14.57;;
73136;SDS011;62977;45.636;11.750;2022-12-16T00:14:01;22.63;;;14.23;;
73136;SDS011;62977;45.636;11.750;2022-12-16T00:16:27;26.57;;;14.53;;
73136;SDS011;62977;45.636;11.750;2022-12-16T00:18:57;25.15;;;14.85;;
73136;SDS011;62977;45.636;11.750;2022-12-16T00:21:22;24.15;;;15.25;;
73136;SDS011;62977;45.636;11.750;2022-12-16T00:23:53;25.43;;;14.87;;
73136;SDS011;62977;45.636;11.750;2022-12-16T00:26:20;25.45;;;14.18;;
73136;SDS011;62977;45.636;11.750;2022-12-16T00:28:45;25.27;;;14.00;;
73136;SDS011;62977;45.636;11.750;2022-12-16T00:31:11;28.30;;;15.77;;
73136;SDS011;62977;45.636;11.750;2022-12-16T00:33:37;23.63;;;14.13;;
73136;SDS011;62977;45.636;11.750;2022-12-16T00:36:03;24.15;;;14.18;;
73136;SDS011;62977;45.636;11.750;2022-12-16T00:38:29;23.17;;;13.43;;
73136;SDS011;62977;45.636;11.750;2022-12-16T00:40:54;25.85;;;13.32;;
73136;SDS011;62977;45.636;11.750;2022-12-16T00:43:20;21.47;;;13.67;;
73136;SDS011;62977;45.636;11.750;2022-12-16T00:45:46;24.08;;;14.15;;
73136;SDS011;62977;45.636;11.750;2022-12-16T00:48:12;24.60;;;13.52;;
73136;SDS011;62977;45.636;11.750;2022-12-16T00:50:38;23.40;;;13.20;;
73136;SDS011;62977;45.636;11.750;2022-12-16T00:53:04;24.10;;;14.23;;
73136;SDS011;62977;45.636;11.750;2022-12-16T00:55:30;23.15;;;13.30;;
73136;SDS011;62977;45.636;11.750;2022-12-16T00:57:56;22.13;;;13.00;;
73136;SDS011;62977;45.636;11.750;2022-12-16T01:00:23;21.05;;;12.63;;
73136;SDS011;62977;45.636;11.750;2022-12-16T01:02:49;22.95;;;13.07;;
73136;SDS011;62977;45.636;11.750;2022-12-16T01:05:17;21.45;;;13.27;;
73136;SDS011;62977;45.636;11.750;2022-12-16T01:07:50;30.73;;;16.13;;
73136;SDS011;62977;45.636;11.750;2022-12-16T01:10:16;33.47;;;17.20;;
73136;SDS011;62977;45.636;11.750;2022-12-16T01:12:42;22.90;;;13.65;;
73136;SDS011;62977;45.636;11.750;2022-12-16T01:15:08;21.57;;;12.63;;
73136;SDS011;62977;45.636;11.750;2022-12-16T01:17:36;25.15;;;14.43;;
73136;SDS011;62977;45.636;11.750;2022-12-16T01:20:02;24.80;;;13.95;;
73136;SDS011;62977;45.636;11.750;2022-12-16T01:22:29;20.45;;;12.70;;
73136;SDS011;62977;45.636;11.750;2022-12-16T01:24:56;25.40;;;14.43;;
73136;SDS011;62977;45.636;11.750;2022-12-16T01:27:23;26.00;;;14.63;;
73136;SDS011;62977;45.636;11.750;2022-12-16T01:29:48;29.58;;;16.23;;
73136;SDS011;62977;45.636;11.750;2022-12-16T01:32:14;25.70;;;15.00;;
73136;SDS011;62977;45.636;11.750;2022-12-16T01:34:40;32.85;;;17.55;;
73136;SDS011;62977;45.636;11.750;2022-12-16T01:37:09;27.17;;;16.38;;
73136;SDS011;62977;45.636;11.750;2022-12-16T01:39:36;29.30;;;15.82;;
73136;SDS011;62977;45.636;11.750;2022-12-16T01:42:02;27.17;;;14.48;;
73136;SDS011;62977;45.636;11.750;2022-12-16T01:44:29;24.67;;;14.27;;
73136;SDS011;62977;45.636;11.750;2022-12-16T01:46:56;27.17;;;15.13;;
73136;SDS011;62977;45.636;11.750;2022-12-16T01:52:03;22.00;;;13.10;;
73136;SDS011;62977;45.636;11.750;2022-12-16T01:54:35;28.75;;;16.65;;
73136;SDS011;62977;45.636;11.750;2022-12-16T01:57:10;25.08;;;14.40;;
73136;SDS011;62977;45.636;11.750;2022-12-16T01:59:40;24.95;;;13.95;;
73136;SDS011;62977;45.636;11.750;2022-12-16T02:02:08;23.20;;;14.07;;
73136;SDS011;62977;45.636;11.750;2022-12-16T02:04:36;24.80;;;13.90;;
73136;SDS011;62977;45.636;11.750;2022-12-16T02:07:22;21.80;;;13.63;;
73136;SDS011;62977;45.636;11.750;2022-12-16T02:09:48;24.70;;;14.18;;
73136;SDS011;62977;45.636;11.750;2022-12-16T02:15:33;23.17;;;12.80;;
73136;SDS011;62977;45.636;11.750;2022-12-16T02:18:11;23.75;;;13.38;;
73136;SDS011;62977;45.636;11.750;2022-12-16T02:29:23;26.03;;;14.50;;
73136;SDS011;62977;45.636;11.750;2022-12-16T02:32:15;23.25;;;13.95;;
73136;SDS011;62977;45.636;11.750;2022-12-16T02:40:54;36.50;;;16.63;;
73136;SDS011;62977;45.636;11.750;2022-12-16T02:45:55;26.75;;;15.18;;
73136;SDS011;62977;45.636;11.750;2022-12-16T02:48:21;28.00;;;14.50;;
73136;SDS011;62977;45.636;11.750;2022-12-16T02:50:48;26.95;;;13.77;;
73136;SDS011;62977;45.636;11.750;2022-12-16T02:53:15;26.77;;;14.37;;
73136;SDS011;62977;45.636;11.750;2022-12-16T03:02:21;22.33;;;12.95;;
73136;SDS011;62977;45.636;11.750;2022-12-16T03:04:36;23.45;;;13.63;;
73136;SDS011;62977;45.636;11.750;2022-12-16T03:07:08;23.80;;;13.83;;
73136;SDS011;62977;45.636;11.750;2022-12-16T03:09:36;25.40;;;14.52;;
73136;SDS011;62977;45.636;11.750;2022-12-16T03:12:04;24.23;;;13.40;;
73136;SDS011;62977;45.636;11.750;2022-12-16T03:14:34;26.45;;;14.90;;
73136;SDS011;62977;45.636;11.750;2022-12-16T03:17:03;26.48;;;14.55;;
73136;SDS011;62977;45.636;11.750;2022-12-16T03:19:29;24.10;;;13.90;;
73136;SDS011;62977;45.636;11.750;2022-12-16T03:21:59;26.35;;;14.52;;
73136;SDS011;62977;45.636;11.750;2022-12-16T03:24:30;25.42;;;14.13;;
73136;SDS011;62977;45.636;11.750;2022-12-16T03:35:21;23.33;;;13.07;;
73136;SDS011;62977;45.636;11.750;2022-12-16T03:37:58;26.05;;;13.35;;
73136;SDS011;62977;45.636;11.750;2022-12-16T03:40:27;22.25;;;11.30;;
73136;SDS011;62977;45.636;11.750;2022-12-16T03:42:53;25.23;;;13.63;;
73136;SDS011;62977;45.636;11.750;2022-12-16T03:45:25;25.40;;;13.07;;
73136;SDS011;62977;45.636;11.750;2022-12-16T03:47:55;23.90;;;12.65;;
73136;SDS011;62977;45.636;11.750;2022-12-16T03:50:23;24.15;;;13.02;;
73136;SDS011;62977;45.636;11.750;2022-12-16T03:52:55;23.15;;;12.68;;
73136;SDS011;62977;45.636;11.750;2022-12-16T03:55:21;23.03;;;12.00;;
73136;SDS011;62977;45.636;11.750;2022-12-16T03:57:47;22.50;;;11.60;;
73136;SDS011;62977;45.636;11.750;2022-12-16T04:00:12;22.03;;;11.70;;
73136;SDS011;62977;45.636;11.750;2022-12-16T04:02:39;23.13;;;11.60;;
73136;SDS011;62977;45.636;11.750;2022-12-16T04:05:05;23.88;;;12.35;;
73136;SDS011;62977;45.636;11.750;2022-12-16T04:07:31;21.27;;;11.95;;
73136;SDS011;62977;45.636;11.750;2022-12-16T04:09:57;21.93;;;12.00;;
73136;SDS011;62977;45.636;11.750;2022-12-16T04:12:22;22.90;;;12.32;;
73136;SDS011;62977;45.636;11.750;2022-12-16T04:15:07;24.02;;;12.52;;
73136;SDS011;62977;45.636;11.750;2022-12-16T04:17:52;24.13;;;13.47;;
73136;SDS011;62977;45.636;11.750;2022-12-16T04:20:37;25.67;;;12.82;;
73136;SDS011;62977;45.636;11.750;2022-12-16T04:23:25;24.25;;;12.35;;
73136;SDS011;62977;45.636;11.750;2022-12-16T04:26:10;24.73;;;11.57;;
73136;SDS011;62977;45.636;11.750;2022-12-16T04:28:36;21.58;;;12.38;;
73136;SDS011;62977;45.636;11.750;2022-12-16T04:31:02;25.07;;;12.50;;
73136;SDS011;62977;45.636;11.750;2022-12-16T04:33:28;22.73;;;11.77;;
73136;SDS011;62977;45.636;11.750;2022-12-16T04:36:13;25.17;;;12.68;;
73136;SDS011;62977;45.636;11.750;2022-12-16T04:38:57;22.97;;;12.23;;
73136;SDS011;62977;45.636;11.750;2022-12-16T04:41:41;26.05;;;12.77;;
73136;SDS011;62977;45.636;11.750;2022-12-16T04:44:25;22.67;;;12.63;;
73136;SDS011;62977;45.636;11.750;2022-12-16T04:47:20;24.95;;;12.93;;
73136;SDS011;62977;45.636;11.750;2022-12-16T04:50:04;24.95;;;13.40;;
73136;SDS011;62977;45.636;11.750;2022-12-16T04:52:50;23.20;;;12.23;;
73136;SDS011;62977;45.636;11.750;2022-12-16T04:55:34;26.02;;;12.75;;
73136;SDS011;62977;45.636;11.750;2022-12-16T04:58:18;23.52;;;12.68;;
73136;SDS011;62977;45.636;11.750;2022-12-16T05:01:03;28.42;;;13.52;;
73136;SDS011;62977;45.636;11.750;2022-12-16T05:03:47;24.10;;;13.10;;
73136;SDS011;62977;45.636;11.750;2022-12-16T05:06:41;32.93;;;16.20;;
73136;SDS011;62977;45.636;11.750;2022-12-16T05:09:26;33.65;;;16.27;;
73136;SDS011;62977;45.636;11.750;2022-12-16T05:12:10;36.63;;;16.45;;
73136;SDS011;62977;45.636;11.750;2022-12-16T05:14:54;35.30;;;16.00;;
73136;SDS011;62977;45.636;11.750;2022-12-16T05:17:38;36.05;;;16.20;;
73136;SDS011;62977;45.636;11.750;2022-12-16T05:20:22;33.53;;;15.07;;
73136;SDS011;62977;45.636;11.750;2022-12-16T05:23:06;31.58;;;15.25;;
73136;SDS011;62977;45.636;11.750;2022-12-16T05:25:50;33.03;;;15.18;;
73136;SDS011;62977;45.636;11.750;2022-12-16T05:28:34;31.23;;;15.05;;
73136;SDS011;62977;45.636;11.750;2022-12-16T05:31:18;31.35;;;16.52;;
73136;SDS011;62977;45.636;11.750;2022-12-16T05:34:02;28.67;;;14.70;;
73136;SDS011;62977;45.636;11.750;2022-12-16T05:36:46;29.13;;;14.45;;
73136;SDS011;62977;45.636;11.750;2022-12-16T05:39:30;33.17;;;15.93;;
73136;SDS011;62977;45.636;11.750;2022-12-16T05:42:14;31.63;;;14.75;;
73136;SDS011;62977;45.636;11.750;2022-12-16T05:44:58;31.70;;;14.73;;
73136;SDS011;62977;45.636;11.750;2022-12-16T05:47:42;30.83;;;15.20;;
73136;SDS011;62977;45.636;11.750;2022-12-16T05:50:29;31.52;;;16.25;;
73136;SDS011;62977;45.636;11.750;2022-12-16T05:53:13;32.17;;;15.90;;
73136;SDS011;62977;45.636;11.750;2022-12-16T05:55:57;33.38;;;15.18;;
73136;SDS011;62977;45.636;11.750;2022-12-16T05:58:41;50.47;;;17.40;;
73136;SDS011;62977;45.636;11.750;2022-12-16T06:01:25;31.10;;;16.00;;
73136;SDS011;62977;45.636;11.750;2022-12-16T06:04:09;31.63;;;16.05;;
73136;SDS011;62977;45.636;11.750;2022-12-16T06:06:53;36.88;;;16.63;;
73136;SDS011;62977;45.636;11.750;2022-12-16T06:09:38;40.42;;;17.25;;
73136;SDS011;62977;45.636;11.750;2022-12-16T06:12:22;34.30;;;16.80;;
73136;SDS011;62977;45.636;11.750;2022-12-16T06:15:06;35.47;;;16.27;;
73136;SDS011;62977;45.636;11.750;2022-12-16T06:17:51;42.50;;;19.52;;
73136;SDS011;62977;45.636;11.750;2022-12-16T06:20:34;40.60;;;17.10;;
73136;SDS011;62977;45.636;11.750;2022-12-16T06:23:19;37.78;;;16.20;;
73136;SDS011;62977;45.636;11.750;2022-12-16T06:26:03;36.85;;;16.17;;
73136;SDS011;62977;45.636;11.750;2022-12-16T06:28:47;35.37;;;17.50;;
73136;SDS011;62977;45.636;11.750;2022-12-16T06:31:32;34.13;;;16.13;;
73136;SDS011;62977;45.636;11.750;2022-12-16T06:34:16;37.22;;;16.23;;
73136;SDS011;62977;45.636;11.750;2022-12-16T06:37:00;36.25;;;16.23;;
73136;SDS011;62977;45.636;11.750;2022-12-16T06:39:44;32.88;;;15.48;;
73136;SDS011;62977;45.636;11.750;2022-12-16T06:42:28;30.17;;;14.23;;
73136;SDS011;62977;45.636;11.750;2022-12-16T06:45:12;35.05;;;16.02;;
73136;SDS011;62977;45.636;11.750;2022-12-16T06:47:56;38.30;;;16.60;;
73136;SDS011;62977;45.636;11.750;2022-12-16T06:50:40;36.53;;;16.92;;
73136;SDS011;62977;45.636;11.750;2022-12-16T06:53:24;41.33;;;17.13;;
73136;SDS011;62977;45.636;11.750;2022-12-16T06:56:08;34.97;;;14.63;;
73136;SDS011;62977;45.636;11.750;2022-12-16T06:58:52;37.22;;;17.67;;
73136;SDS011;62977;45.636;11.750;2022-12-16T07:01:36;40.45;;;17.90;;
73136;SDS011;62977;45.636;11.750;2022-12-16T07:04:20;37.80;;;16.10;;
73136;SDS011;62977;45.636;11.750;2022-12-16T07:07:04;37.67;;;16.05;;
73136;SDS011;62977;45.636;11.750;2022-12-16T07:09:48;38.23;;;16.17;;
73136;SDS011;62977;45.636;11.750;2022-12-16T07:12:32;37.42;;;15.40;;
73136;SDS011;62977;45.636;11.750;2022-12-16T07:15:16;36.15;;;15.05;;
73136;SDS011;62977;45.636;11.750;2022-12-16T07:18:00;36.72;;;16.08;;
73136;SDS011;62977;45.636;11.750;2022-12-16T07:20:45;32.08;;;15.10;;
73136;SDS011;62977;45.636;11.750;2022-12-16T07:23:29;32.63;;;14.30;;
73136;SDS011;62977;45.636;11.750;2022-12-16T07:26:13;33.55;;;14.80;;
73136;SDS011;62977;45.636;11.750;2022-12-16T07:28:57;33.75;;;14.38;;
73136;SDS011;62977;45.636;11.750;2022-12-16T07:31:41;31.60;;;14.10;;
73136;SDS011;62977;45.636;11.750;2022-12-16T07:34:25;32.75;;;14.07;;
73136;SDS011;62977;45.636;11.750;2022-12-16T07:37:09;30.00;;;13.83;;
73136;SDS011;62977;45.636;11.750;2022-12-16T07:39:53;32.67;;;12.25;;
73136;SDS011;62977;45.636;11.750;2022-12-16T07:42:39;27.02;;;12.27;;
73136;SDS011;62977;45.636;11.750;2022-12-16T07:45:30;25.20;;;13.45;;
73136;SDS011;62977;45.636;11.750;2022-12-16T07:48:14;25.77;;;13.23;;
73136;SDS011;62977;45.636;11.750;2022-12-16T07:50:58;30.80;;;14.50;;
73136;SDS011;62977;45.636;11.750;2022-12-16T07:53:42;30.80;;;13.00;;
73136;SDS011;62977;45.636;11.750;2022-12-16T07:56:26;30.70;;;14.65;;
73136;SDS011;62977;45.636;11.750;2022-12-16T07:59:10;25.67;;;12.85;;
73136;SDS011;62977;45.636;11.750;2022-12-16T08:01:55;31.00;;;14.25;;
73136;SDS011;62977;45.636;11.750;2022-12-16T08:04:39;29.67;;;13.87;;
73136;SDS011;62977;45.636;11.750;2022-12-16T08:07:23;26.52;;;13.35;;
73136;SDS011;62977;45.636;11.750;2022-12-16T08:10:07;28.05;;;13.18;;
73136;SDS011;62977;45.636;11.750;2022-12-16T08:12:57;24.15;;;12.40;;
73136;SDS011;62977;45.636;11.750;2022-12-16T08:15:45;27.58;;;12.85;;
73136;SDS011;62977;45.636;11.750;2022-12-16T08:18:29;30.00;;;12.93;;
73136;SDS011;62977;45.636;11.750;2022-12-16T08:21:13;27.02;;;13.60;;
73136;SDS011;62977;45.636;11.750;2022-12-16T08:23:58;23.88;;;12.05;;
73136;SDS011;62977;45.636;11.750;2022-12-16T08:26:42;30.45;;;13.60;;
73136;SDS011;62977;45.636;11.750;2022-12-16T08:29:27;31.75;;;14.48;;
73136;SDS011;62977;45.636;11.750;2022-12-16T08:32:14;23.60;;;12.60;;
73136;SDS011;62977;45.636;11.750;2022-12-16T08:34:59;23.67;;;11.48;;
73136;SDS011;62977;45.636;11.750;2022-12-16T08:37:44;27.23;;;12.45;;
73136;SDS011;62977;45.636;11.750;2022-12-16T08:40:29;29.52;;;12.88;;
73136;SDS011;62977;45.636;11.750;2022-12-16T08:43:18;24.55;;;12.70;;
73136;SDS011;62977;45.636;11.750;2022-12-16T08:46:02;26.93;;;13.00;;
73136;SDS011;62977;45.636;11.750;2022-12-16T08:48:46;27.10;;;12.85;;
73136;SDS011;62977;45.636;11.750;2022-12-16T08:51:30;32.25;;;13.98;;
73136;SDS011;62977;45.636;11.750;2022-12-16T08:54:14;28.58;;;13.93;;
73136;SDS011;62977;45.636;11.750;2022-12-16T08:56:58;30.58;;;14.48;;
73136;SDS011;62977;45.636;11.750;2022-12-16T08:59:42;27.27;;;13.73;;
73136;SDS011;62977;45.636;11.750;2022-12-16T09:02:26;27.98;;;13.00;;
73136;SDS011;62977;45.636;11.750;2022-12-16T09:05:11;26.70;;;12.35;;
73136;SDS011;62977;45.636;11.750;2022-12-16T09:07:58;24.48;;;11.25;;
73136;SDS011;62977;45.636;11.750;2022-12-16T09:10:44;22.50;;;11.43;;
73136;SDS011;62977;45.636;11.750;2022-12-16T09:13:28;21.63;;;11.93;;
73136;SDS011;62977;45.636;11.750;2022-12-16T09:16:13;22.48;;;10.82;;
73136;SDS011;62977;45.636;11.750;2022-12-16T09:18:57;21.25;;;11.45;;
73136;SDS011;62977;45.636;11.750;2022-12-16T09:21:49;20.73;;;10.75;;
73136;SDS011;62977;45.636;11.750;2022-12-16T09:24:33;21.13;;;12.15;;
73136;SDS011;62977;45.636;11.750;2022-12-16T09:27:17;22.87;;;11.83;;
73136;SDS011;62977;45.636;11.750;2022-12-16T09:30:01;24.73;;;12.13;;
73136;SDS011;62977;45.636;11.750;2022-12-16T09:32:46;22.50;;;12.23;;
73136;SDS011;62977;45.636;11.750;2022-12-16T09:35:30;22.13;;;11.55;;
73136;SDS011;62977;45.636;11.750;2022-12-16T09:38:14;18.92;;;11.25;;
73136;SDS011;62977;45.636;11.750;2022-12-16T09:40:59;20.07;;;11.73;;
73136;SDS011;62977;45.636;11.750;2022-12-16T09:44:02;21.08;;;11.13;;
73136;SDS011;62977;45.636;11.750;2022-12-16T09:49:59;20.33;;;11.02;;
73136;SDS011;62977;45.636;11.750;2022-12-16T09:52:52;19.42;;;10.93;;
73136;SDS011;62977;45.636;11.750;2022-12-16T09:55:42;17.60;;;10.17;;
73136;SDS011;62977;45.636;11.750;2022-12-16T09:58:29;18.90;;;10.55;;
73136;SDS011;62977;45.636;11.750;2022-12-16T10:01:22;22.70;;;11.80;;
73136;SDS011;62977;45.636;11.750;2022-12-16T10:04:08;26.58;;;15.13;;
73136;SDS011;62977;45.636;11.750;2022-12-16T10:06:53;36.85;;;18.58;;
73136;SDS011;62977;45.636;11.750;2022-12-16T10:12:38;28.20;;;16.88;;
73136;SDS011;62977;45.636;11.750;2022-12-16T10:21:44;24.13;;;13.73;;
73136;SDS011;62977;45.636;11.750;2022-12-16T10:28:21;27.30;;;15.02;;
73136;SDS011;62977;45.636;11.750;2022-12-16T10:31:19;21.13;;;12.38;;
73136;SDS011;62977;45.636;11.750;2022-12-16T10:34:06;21.90;;;12.45;;
73136;SDS011;62977;45.636;11.750;2022-12-16T10:36:55;22.98;;;13.27;;
73136;SDS011;62977;45.636;11.750;2022-12-16T10:39:41;22.60;;;12.23;;
73136;SDS011;62977;45.636;11.750;2022-12-16T10:42:32;21.45;;;12.75;;
73136;SDS011;62977;45.636;11.750;2022-12-16T10:45:24;21.20;;;12.35;;
73136;SDS011;62977;45.636;11.750;2022-12-16T10:48:15;21.58;;;12.13;;
73136;SDS011;62977;45.636;11.750;2022-12-16T10:51:07;21.42;;;13.05;;
73136;SDS011;62977;45.636;11.750;2022-12-16T10:53:56;22.83;;;13.00;;
73136;SDS011;62977;45.636;11.750;2022-12-16T11:02:54;25.17;;;13.35;;
73136;SDS011;62977;45.636;11.750;2022-12-16T11:05:38;22.42;;;13.63;;
73136;SDS011;62977;45.636;11.750;2022-12-16T11:11:22;22.95;;;13.15;;
73136;SDS011;62977;45.636;11.750;2022-12-16T11:14:20;25.33;;;13.98;;
73136;SDS011;62977;45.636;11.750;2022-12-16T11:20:05;26.27;;;14.40;;
73136;SDS011;62977;45.636;11.750;2022-12-16T11:26:16;24.58;;;14.32;;
73136;SDS011;62977;45.636;11.750;2022-12-16T11:29:08;25.00;;;14.70;;
73136;SDS011;62977;45.636;11.750;2022-12-16T11:35:02;27.13;;;15.00;;
73136;SDS011;62977;45.636;11.750;2022-12-16T11:37:52;24.97;;;13.80;;
73136;SDS011;62977;45.636;11.750;2022-12-16T11:40:39;23.60;;;13.40;;
73136;SDS011;62977;45.636;11.750;2022-12-16T11:43:24;21.75;;;12.73;;
73136;SDS011;62977;45.636;11.750;2022-12-16T11:46:23;19.63;;;11.40;;
73136;SDS011;62977;45.636;11.750;2022-12-16T11:49:16;20.70;;;12.18;;
73136;SDS011;62977;45.636;11.750;2022-12-16T11:52:07;25.50;;;14.37;;
73136;SDS011;62977;45.636;11.750;2022-12-16T11:54:58;22.02;;;12.63;;
73136;SDS011;62977;45.636;11.750;2022-12-16T12:01:02;19.80;;;11.45;;
73136;SDS011;62977;45.636;11.750;2022-12-16T12:03:52;18.20;;;10.75;;
73136;SDS011;62977;45.636;11.750;2022-12-16T12:09:27;20.10;;;11.20;;
73136;SDS011;62977;45.636;11.750;2022-12-16T12:12:20;19.90;;;11.85;;
73136;SDS011;62977;45.636;11.750;2022-12-16T12:15:16;21.58;;;11.73;;
73136;SDS011;62977;45.636;11.750;2022-12-16T12:21:12;22.63;;;11.43;;
73136;SDS011;62977;45.636;11.750;2022-12-16T12:30:25;25.33;;;14.52;;
73136;SDS011;62977;45.636;11.750;2022-12-16T12:33:24;27.55;;;15.63;;
73136;SDS011;62977;45.636;11.750;2022-12-16T12:39:40;24.25;;;13.68;;
73136;SDS011;62977;45.636;11.750;2022-12-16T12:42:30;26.10;;;13.02;;
73136;SDS011;62977;45.636;11.750;2022-12-16T12:54:52;29.27;;;15.40;;
73136;SDS011;62977;45.636;11.750;2022-12-16T12:57:53;26.27;;;13.75;;
73136;SDS011;62977;45.636;11.750;2022-12-16T13:00:48;26.88;;;14.30;;
73136;SDS011;62977;45.636;11.750;2022-12-16T13:03:41;26.45;;;15.55;;
73136;SDS011;62977;45.636;11.750;2022-12-16T13:06:28;27.47;;;13.80;;
73136;SDS011;62977;45.636;11.750;2022-12-16T13:15:03;25.65;;;14.48;;
73136;SDS011;62977;45.636;11.750;2022-12-16T13:20:43;22.60;;;13.87;;
73136;SDS011;62977;45.636;11.750;2022-12-16T13:23:28;31.90;;;16.67;;
73136;SDS011;62977;45.636;11.750;2022-12-16T13:26:15;37.28;;;18.17;;
73136;SDS011;62977;45.636;11.750;2022-12-16T13:32:01;23.92;;;13.38;;
73136;SDS011;62977;45.636;11.750;2022-12-16T13:35:18;27.60;;;13.47;;
73136;SDS011;62977;45.636;11.750;2022-12-16T13:38:24;22.58;;;12.40;;
73136;SDS011;62977;45.636;11.750;2022-12-16T13:50:37;27.67;;;15.00;;
73136;SDS011;62977;45.636;11.750;2022-12-16T13:53:23;32.33;;;17.67;;
73136;SDS011;62977;45.636;11.750;2022-12-16T13:56:12;30.70;;;15.73;;
73136;SDS011;62977;45.636;11.750;2022-12-16T13:59:02;31.08;;;16.60;;
73136;SDS011;62977;45.636;11.750;2022-12-16T14:01:52;28.23;;;14.68;;
73136;SDS011;62977;45.636;11.750;2022-12-16T14:04:39;26.27;;;14.27;;
73136;SDS011;62977;45.636;11.750;2022-12-16T14:07:29;30.38;;;14.27;;
73136;SDS011;62977;45.636;11.750;2022-12-16T14:13:32;31.05;;;15.18;;
73136;SDS011;62977;45.636;11.750;2022-12-16T14:22:58;34.92;;;18.15;;
73136;SDS011;62977;45.636;11.750;2022-12-16T14:26:04;38.53;;;20.02;;
73136;SDS011;62977;45.636;11.750;2022-12-16T14:28:53;37.53;;;19.23;;
73136;SDS011;62977;45.636;11.750;2022-12-16T14:31:39;38.17;;;19.60;;
73136;SDS011;62977;45.636;11.750;2022-12-16T14:34:26;41.70;;;21.80;;
73136;SDS011;62977;45.636;11.750;2022-12-16T14:37:16;41.83;;;20.17;;
73136;SDS011;62977;45.636;11.750;2022-12-16T14:40:04;39.35;;;18.25;;
73136;SDS011;62977;45.636;11.750;2022-12-16T14:43:01;35.65;;;16.50;;
73136;SDS011;62977;45.636;11.750;2022-12-16T14:45:49;41.63;;;18.77;;
73136;SDS011;62977;45.636;11.750;2022-12-16T14:48:37;41.17;;;20.53;;
73136;SDS011;62977;45.636;11.750;2022-12-16T14:54:14;38.78;;;19.00;;
73136;SDS011;62977;45.636;11.750;2022-12-16T14:57:00;37.90;;;19.27;;
73136;SDS011;62977;45.636;11.750;2022-12-16T14:59:45;34.28;;;17.67;;
73136;SDS011;62977;45.636;11.750;2022-12-16T15:02:30;38.60;;;17.83;;
73136;SDS011;62977;45.636;11.750;2022-12-16T15:05:20;33.25;;;17.63;;
73136;SDS011;62977;45.636;11.750;2022-12-16T15:08:12;34.78;;;17.85;;
73136;SDS011;62977;45.636;11.750;2022-12-16T15:10:56;35.78;;;18.50;;
73136;SDS011;62977;45.636;11.750;2022-12-16T15:13:41;34.28;;;19.13;;
73136;SDS011;62977;45.636;11.750;2022-12-16T15:16:28;35.57;;;18.83;;
73136;SDS011;62977;45.636;11.750;2022-12-16T15:19:17;39.17;;;19.80;;
73136;SDS011;62977;45.636;11.750;2022-12-16T15:22:03;39.05;;;19.70;;
73136;SDS011;62977;45.636;11.750;2022-12-16T15:24:48;37.88;;;18.42;;
73136;SDS011;62977;45.636;11.750;2022-12-16T15:27:35;35.20;;;17.88;;
73136;SDS011;62977;45.636;11.750;2022-12-16T15:33:17;38.97;;;17.98;;
73136;SDS011;62977;45.636;11.750;2022-12-16T15:36:04;41.35;;;21.65;;
73136;SDS011;62977;45.636;11.750;2022-12-16T15:38:49;40.83;;;20.30;;
73136;SDS011;62977;45.636;11.750;2022-12-16T15:41:34;42.08;;;21.27;;
73136;SDS011;62977;45.636;11.750;2022-12-16T15:44:21;38.80;;;19.47;;
73136;SDS011;62977;45.636;11.750;2022-12-16T15:50:25;35.70;;;19.30;;
73136;SDS011;62977;45.636;11.750;2022-12-16T15:56:16;34.83;;;17.52;;
73136;SDS011;62977;45.636;11.750;2022-12-16T16:01:57;38.38;;;19.58;;
73136;SDS011;62977;45.636;11.750;2022-12-16T16:04:41;41.03;;;19.73;;
73136;SDS011;62977;45.636;11.750;2022-12-16T16:07:25;41.10;;;20.02;;
73136;SDS011;62977;45.636;11.750;2022-12-16T16:10:20;41.00;;;18.63;;
73136;SDS011;62977;45.636;11.750;2022-12-16T16:13:05;42.90;;;20.60;;
73136;SDS011;62977;45.636;11.750;2022-12-16T16:15:51;41.88;;;22.33;;
73136;SDS011;62977;45.636;11.750;2022-12-16T16:18:35;41.25;;;21.73;;
73136;SDS011;62977;45.636;11.750;2022-12-16T16:21:20;40.63;;;20.52;;
73136;SDS011;62977;45.636;11.750;2022-12-16T16:24:05;42.72;;;21.20;;
73136;SDS011;62977;45.636;11.750;2022-12-16T16:26:49;40.50;;;20.80;;
73136;SDS011;62977;45.636;11.750;2022-12-16T16:29:36;36.92;;;18.83;;
73136;SDS011;62977;45.636;11.750;2022-12-16T16:32:20;41.67;;;20.63;;
73136;SDS011;62977;45.636;11.750;2022-12-16T16:35:04;39.13;;;19.73;;
73136;SDS011;62977;45.636;11.750;2022-12-16T16:37:49;36.63;;;19.70;;
73136;SDS011;62977;45.636;11.750;2022-12-16T16:40:35;37.83;;;19.97;;
73136;SDS011;62977;45.636;11.750;2022-12-16T16:43:21;50.72;;;24.55;;
73136;SDS011;62977;45.636;11.750;2022-12-16T16:46:49;58.60;;;25.80;;
73136;SDS011;62977;45.636;11.750;2022-12-16T16:49:24;42.30;;;21.83;;
73136;SDS011;62977;45.636;11.750;2022-12-16T16:52:13;48.78;;;22.52;;
73136;SDS011;62977;45.636;11.750;2022-12-16T16:54:59;40.10;;;20.57;;
73136;SDS011;62977;45.636;11.750;2022-12-16T16:57:43;43.40;;;20.45;;
73136;SDS011;62977;45.636;11.750;2022-12-16T17:00:28;44.05;;;22.38;;
73136;SDS011;62977;45.636;11.750;2022-12-16T17:03:13;42.53;;;21.67;;
73136;SDS011;62977;45.636;11.750;2022-12-16T17:05:57;39.75;;;21.35;;
73136;SDS011;62977;45.636;11.750;2022-12-16T17:08:41;41.50;;;23.03;;
73136;SDS011;62977;45.636;11.750;2022-12-16T17:11:26;46.33;;;24.02;;
73136;SDS011;62977;45.636;11.750;2022-12-16T17:14:12;48.13;;;24.52;;
73136;SDS011;62977;45.636;11.750;2022-12-16T17:16:57;50.90;;;25.48;;
73136;SDS011;62977;45.636;11.750;2022-12-16T17:19:41;52.78;;;27.08;;
73136;SDS011;62977;45.636;11.750;2022-12-16T17:22:25;56.70;;;27.60;;
73136;SDS011;62977;45.636;11.750;2022-12-16T17:25:09;51.15;;;25.73;;
73136;SDS011;62977;45.636;11.750;2022-12-16T17:27:54;58.35;;;28.85;;
73136;SDS011;62977;45.636;11.750;2022-12-16T17:30:38;57.80;;;29.90;;
73136;SDS011;62977;45.636;11.750;2022-12-16T17:33:22;53.85;;;28.00;;
73136;SDS011;62977;45.636;11.750;2022-12-16T17:36:09;52.10;;;27.43;;
73136;SDS011;62977;45.636;11.750;2022-12-16T17:38:55;51.78;;;27.23;;
73136;SDS011;62977;45.636;11.750;2022-12-16T17:41:39;48.67;;;25.10;;
73136;SDS011;62977;45.636;11.750;2022-12-16T17:44:24;49.13;;;25.60;;
73136;SDS011;62977;45.636;11.750;2022-12-16T17:47:08;44.80;;;24.27;;
73136;SDS011;62977;45.636;11.750;2022-12-16T17:49:52;51.13;;;24.83;;
73136;SDS011;62977;45.636;11.750;2022-12-16T17:52:36;54.35;;;25.92;;
73136;SDS011;62977;45.636;11.750;2022-12-16T17:55:20;54.25;;;25.98;;
73136;SDS011;62977;45.636;11.750;2022-12-16T17:58:04;61.05;;;28.92;;
73136;SDS011;62977;45.636;11.750;2022-12-16T18:00:49;62.65;;;30.65;;